F/V Attalaya Berria — FHCB — position and weather

sailwx.info

Track history (hours):
 
Tides and Currents Weather Stations Pressure Air Temp Water Temp Dewpoint Dewpoint Depression Visibility Wind Speed Wind Dir Waves Ship Positions

F/V Attalaya Berria

Last reported at 2015-Jan-26 23:33 UTC. Time now 2015-Jan-27 08:21 UTC.
Position N 43°22' W 001°47'.

Length 26 m.

Type: Fishing. MMSI: 228315000.

Date/timePositionNaut miles runAvg speedWind from/ knotsBaromVisibWave heightAir tempDewpointWater temp
2015-Jan-26 23:33N 43°22' W 001°47'2 2.0
2015-Jan-26 22:34N 43°24' W 001°46'7 7.0
2015-Jan-26 21:34N 43°28' W 001°38'1 0.8
2015-Jan-26 20:34N 43°28' W 001°39'2 2.1
2015-Jan-26 19:33N 43°27' W 001°42'1 0.5
2015-Jan-26 18:32N 43°27' W 001°43'5 5.5
2015-Jan-26 17:33N 43°22' W 001°47'0 0.0
2015-Jan-26 16:33N 43°22' W 001°47'0 0.0
2015-Jan-26 15:33N 43°22' W 001°47'0 0.0
2015-Jan-26 14:33N 43°22' W 001°47'0 0.0
2015-Jan-26 13:33N 43°22' W 001°47'0 0.0
2015-Jan-26 12:33N 43°22' W 001°47'0 0.0
2015-Jan-26 11:33N 43°22' W 001°47'0 0.0
2015-Jan-26 10:33N 43°22' W 001°47'0 0.0
2015-Jan-26 09:33N 43°22' W 001°47'0 0.0
2015-Jan-26 08:34N 43°22' W 001°47'2 2.0
2015-Jan-26 07:33N 43°24' W 001°46'4 4.4
2015-Jan-26 06:34N 43°23' W 001°40'0 0.0
2015-Jan-26 05:33N 43°23' W 001°40'0 0.1
2015-Jan-26 04:33N 43°23' W 001°40'5 4.6
2015-Jan-26 03:34N 43°24' W 001°46'6 5.6
2015-Jan-26 02:34N 43°28' W 001°41'0 0.2
2015-Jan-26 01:33N 43°28' W 001°41'2 1.7
2015-Jan-26 00:33N 43°29' W 001°39'5 5.0
2015-Jan-25 23:33N 43°24' W 001°42'1 1.3
2015-Jan-25 22:33N 43°24' W 001°44'1 1.2
2015-Jan-25 21:34N 43°24' W 001°46'3 3.1
2015-Jan-25 20:33N 43°26' W 001°42'0 0.2
2015-Jan-25 19:33N 43°26' W 001°42'1 0.6
2015-Jan-25 18:33N 43°26' W 001°43'  
2015-Jan-21 14:17N 43°22' W 001°47'4 5.4
2015-Jan-21 13:33N 43°25' W 001°43'3 2.8
2015-Jan-21 12:25N 43°23' W 001°40'0 0.0
2015-Jan-21 10:25N 43°23' W 001°40'0 0.0
2015-Jan-21 09:28N 43°23' W 001°40'0 0.0
2015-Jan-21 08:32N 43°23' W 001°40'0 0.0
2015-Jan-21 07:33N 43°23' W 001°40'0 0.0
2015-Jan-21 06:33N 43°23' W 001°40'0 0.0
2015-Jan-21 05:33N 43°23' W 001°40'0 0.0
2015-Jan-21 04:33N 43°23' W 001°40'0 0.0
2015-Jan-21 03:33N 43°23' W 001°40'0 0.2
2015-Jan-21 02:33N 43°23' W 001°40'4 1.4
2015-Jan-20 23:34N 43°28' W 001°41'0 0.3
2015-Jan-20 22:33N 43°28' W 001°41'0 0.2
2015-Jan-20 21:33N 43°28' W 001°41'0 0.4
2015-Jan-20 20:33N 43°28' W 001°41'2 2.3
2015-Jan-20 19:33N 43°28' W 001°38'2 1.8
2015-Jan-20 18:33N 43°26' W 001°39'6 0.3
2015-Jan-19 17:33N 43°23' W 001°47'4 0.2
2015-Jan-19 00:29N 43°23' W 001°53'9 9.9
2015-Jan-18 23:33N 43°26' W 001°41'1 1.1
2015-Jan-18 22:33N 43°26' W 001°39'1 0.7
2015-Jan-18 21:33N 43°27' W 001°39'0 0.3
2015-Jan-18 20:33N 43°27' W 001°39'  
Track history (hours):
 
Tides and Currents Weather Stations Pressure Air Temp Water Temp Dewpoint Dewpoint Depression Visibility Wind Speed Wind Dir Waves Ship Positions

F/V Attalaya Berria

Last reported at 2015-Jan-26 23:33 UTC. Time now 2015-Jan-27 08:21 UTC.
Position N 43°22' W 001°47'.

Length 26 m.

Type: Fishing. MMSI: 228315000.

Date/timePositionNaut miles runAvg speedWind from/ knotsBaromVisibWave heightAir tempDewpointWater temp
2015-Jan-26 23:33N 43°22' W 001°47'2 2.0
2015-Jan-26 22:34N 43°24' W 001°46'7 7.0
2015-Jan-26 21:34N 43°28' W 001°38'1 0.8
2015-Jan-26 20:34N 43°28' W 001°39'2 2.1
2015-Jan-26 19:33N 43°27' W 001°42'1 0.5
2015-Jan-26 18:32N 43°27' W 001°43'5 5.5
2015-Jan-26 17:33N 43°22' W 001°47'0 0.0
2015-Jan-26 16:33N 43°22' W 001°47'0 0.0
2015-Jan-26 15:33N 43°22' W 001°47'0 0.0
2015-Jan-26 14:33N 43°22' W 001°47'0 0.0
2015-Jan-26 13:33N 43°22' W 001°47'0 0.0
2015-Jan-26 12:33N 43°22' W 001°47'0 0.0
2015-Jan-26 11:33N 43°22' W 001°47'0 0.0
2015-Jan-26 10:33N 43°22' W 001°47'0 0.0
2015-Jan-26 09:33N 43°22' W 001°47'0 0.0
2015-Jan-26 08:34N 43°22' W 001°47'2 2.0
2015-Jan-26 07:33N 43°24' W 001°46'4 4.4
2015-Jan-26 06:34N 43°23' W 001°40'0 0.0
2015-Jan-26 05:33N 43°23' W 001°40'0 0.1
2015-Jan-26 04:33N 43°23' W 001°40'5 4.6
2015-Jan-26 03:34N 43°24' W 001°46'6 5.6
2015-Jan-26 02:34N 43°28' W 001°41'0 0.2
2015-Jan-26 01:33N 43°28' W 001°41'2 1.7
2015-Jan-26 00:33N 43°29' W 001°39'5 5.0
2015-Jan-25 23:33N 43°24' W 001°42'1 1.3
2015-Jan-25 22:33N 43°24' W 001°44'1 1.2
2015-Jan-25 21:34N 43°24' W 001°46'3 3.1
2015-Jan-25 20:33N 43°26' W 001°42'0 0.2
2015-Jan-25 19:33N 43°26' W 001°42'1 0.6
2015-Jan-25 18:33N 43°26' W 001°43'  
2015-Jan-21 14:17N 43°22' W 001°47'4 5.4
2015-Jan-21 13:33N 43°25' W 001°43'3 2.8
2015-Jan-21 12:25N 43°23' W 001°40'0 0.0
2015-Jan-21 10:25N 43°23' W 001°40'0 0.0
2015-Jan-21 09:28N 43°23' W 001°40'0 0.0
2015-Jan-21 08:32N 43°23' W 001°40'0 0.0
2015-Jan-21 07:33N 43°23' W 001°40'0 0.0
2015-Jan-21 06:33N 43°23' W 001°40'0 0.0
2015-Jan-21 05:33N 43°23' W 001°40'0 0.0
2015-Jan-21 04:33N 43°23' W 001°40'0 0.0
2015-Jan-21 03:33N 43°23' W 001°40'0 0.2
2015-Jan-21 02:33N 43°23' W 001°40'4 1.4
2015-Jan-20 23:34N 43°28' W 001°41'0 0.3
2015-Jan-20 22:33N 43°28' W 001°41'0 0.2
2015-Jan-20 21:33N 43°28' W 001°41'0 0.4
2015-Jan-20 20:33N 43°28' W 001°41'2 2.3
2015-Jan-20 19:33N 43°28' W 001°38'2 1.8
2015-Jan-20 18:33N 43°26' W 001°39'6 0.3
2015-Jan-19 17:33N 43°23' W 001°47'4 0.2
2015-Jan-19 00:29N 43°23' W 001°53'9 9.9
2015-Jan-18 23:33N 43°26' W 001°41'1 1.1
2015-Jan-18 22:33N 43°26' W 001°39'1 0.7
2015-Jan-18 21:33N 43°27' W 001°39'0 0.3
2015-Jan-18 20:33N 43°27' W 001°39'  

Dump ship's entire track history